sensor_id;sensor_type;location;lat;lon;timestamp;pressure;altitude;pressure_sealevel;temperature;humidity
10718;BME280;13513;42.700;23.124;2024-02-26T00:01:05;151114.59;;;8.62;100.00
10718;BME280;13513;42.700;23.124;2024-02-26T00:03:33;151131.39;;;8.68;100.00
10718;BME280;13513;42.700;23.124;2024-02-26T00:06:02;151132.66;;;8.69;100.00
10718;BME280;13513;42.700;23.124;2024-02-26T00:08:30;151142.98;;;8.73;100.00
10718;BME280;13513;42.700;23.124;2024-02-26T00:10:57;151146.86;;;8.74;100.00
10718;BME280;13513;42.700;23.124;2024-02-26T00:13:25;151153.31;;;8.77;100.00
10718;BME280;13513;42.700;23.124;2024-02-26T00:15:52;151090.06;;;8.52;100.00
10718;BME280;13513;42.700;23.124;2024-02-26T00:18:20;150935.00;;;7.92;100.00
10718;BME280;13513;42.700;23.124;2024-02-26T00:20:47;151093.89;;;8.54;100.00
10718;BME280;13513;42.700;23.124;2024-02-26T00:23:17;151124.94;;;8.66;100.00
10718;BME280;13513;42.700;23.124;2024-02-26T00:25:45;151148.17;;;8.75;100.00
10718;BME280;13513;42.700;23.124;2024-02-26T00:28:13;151145.59;;;8.74;100.00
10718;BME280;13513;42.700;23.124;2024-02-26T00:30:41;151166.28;;;8.82;100.00
10718;BME280;13513;42.700;23.124;2024-02-26T00:33:08;151176.61;;;8.86;100.00
10718;BME280;13513;42.700;23.124;2024-02-26T00:35:36;151171.41;;;8.84;100.00
10718;BME280;13513;42.700;23.124;2024-02-26T00:38:03;151149.48;;;8.75;100.00
10718;BME280;13513;42.700;23.124;2024-02-26T00:40:32;151175.30;;;8.85;100.00
10718;BME280;13513;42.700;23.124;2024-02-26T00:42:59;151195.97;;;8.93;100.00
10718;BME280;13513;42.700;23.124;2024-02-26T00:45:27;151198.55;;;8.94;100.00
10718;BME280;13513;42.700;23.124;2024-02-26T00:47:54;151161.08;;;8.80;100.00
10718;BME280;13513;42.700;23.124;2024-02-26T00:50:22;151132.66;;;8.69;100.00
10718;BME280;13513;42.700;23.124;2024-02-26T00:52:50;151091.31;;;8.53;100.00
10718;BME280;13513;42.700;23.124;2024-02-26T00:55:17;151087.44;;;8.51;100.00
10718;BME280;13513;42.700;23.124;2024-02-26T00:57:44;151108.09;;;8.59;100.00
10718;BME280;13513;42.700;23.124;2024-02-26T01:00:13;151171.41;;;8.84;100.00
10718;BME280;13513;42.700;23.124;2024-02-26T01:02:40;151205.05;;;8.97;100.00
10718;BME280;13513;42.700;23.124;2024-02-26T01:05:09;151230.86;;;9.07;100.00
10718;BME280;13513;42.700;23.124;2024-02-26T01:07:36;151258.00;;;9.17;100.00
10718;BME280;13513;42.700;23.124;2024-02-26T01:10:04;151281.30;;;9.26;100.00
10718;BME280;13513;42.700;23.124;2024-02-26T01:12:35;151301.98;;;9.34;100.00
10718;BME280;13513;42.700;23.124;2024-02-26T01:15:03;151318.78;;;9.41;100.00
10718;BME280;13513;42.700;23.124;2024-02-26T01:17:31;151322.66;;;9.42;100.00
10718;BME280;13513;42.700;23.124;2024-02-26T01:19:58;151336.88;;;9.48;100.00
10718;BME280;13513;42.700;23.124;2024-02-26T01:22:26;151322.66;;;9.42;100.00
10718;BME280;13513;42.700;23.124;2024-02-26T01:24:53;151317.47;;;9.40;100.00
10718;BME280;13513;42.700;23.124;2024-02-26T01:27:21;151285.19;;;9.28;100.00
10718;BME280;13513;42.700;23.124;2024-02-26T01:29:50;151282.56;;;9.27;100.00
10718;BME280;13513;42.700;23.124;2024-02-26T01:32:17;151285.19;;;9.28;100.00
10718;BME280;13513;42.700;23.124;2024-02-26T01:34:46;151283.88;;;9.27;100.00
10718;BME280;13513;42.700;23.124;2024-02-26T01:37:13;151285.19;;;9.28;100.00
10718;BME280;13513;42.700;23.124;2024-02-26T01:39:41;151290.33;;;9.30;100.00
10718;BME280;13513;42.700;23.124;2024-02-26T01:42:08;151300.66;;;9.34;100.00
10718;BME280;13513;42.700;23.124;2024-02-26T01:44:35;151303.23;;;9.35;100.00
10718;BME280;13513;42.700;23.124;2024-02-26T01:47:10;151261.88;;;9.19;100.00
10718;BME280;13513;42.700;23.124;2024-02-26T01:49:34;151236.06;;;9.09;100.00
10718;BME280;13513;42.700;23.124;2024-02-26T01:52:03;151211.50;;;8.99;100.00
10718;BME280;13513;42.700;23.124;2024-02-26T01:54:32;151207.63;;;8.98;100.00
10718;BME280;13513;42.700;23.124;2024-02-26T01:57:01;151214.08;;;9.00;100.00
10718;BME280;13513;42.700;23.124;2024-02-26T01:59:29;151205.05;;;8.97;100.00
10718;BME280;13513;42.700;23.124;2024-02-26T02:01:58;151199.84;;;8.95;100.00
10718;BME280;13513;42.700;23.124;2024-02-26T02:04:28;151206.31;;;8.97;100.00
10718;BME280;13513;42.700;23.124;2024-02-26T02:06:58;151172.73;;;8.84;100.00
10718;BME280;13513;42.700;23.124;2024-02-26T02:09:28;151152.06;;;8.76;100.00
10718;BME280;13513;42.700;23.124;2024-02-26T02:11:56;151146.86;;;8.74;100.00
10718;BME280;13513;42.700;23.124;2024-02-26T02:14:24;151141.72;;;8.72;100.00
10718;BME280;13513;42.700;23.124;2024-02-26T02:16:52;151064.20;;;8.42;100.00
10718;BME280;13513;42.700;23.124;2024-02-26T02:19:20;151109.41;;;8.60;100.00
10718;BME280;13513;42.700;23.124;2024-02-26T02:21:47;151126.19;;;8.66;100.00
10718;BME280;13513;42.700;23.124;2024-02-26T02:24:15;151140.41;;;8.72;100.00
10718;BME280;13513;42.700;23.124;2024-02-26T02:26:43;151142.98;;;8.73;100.00
10718;BME280;13513;42.700;23.124;2024-02-26T02:29:10;151158.50;;;8.79;100.00
10718;BME280;13513;42.700;23.124;2024-02-26T02:31:39;151152.06;;;8.76;100.00
10718;BME280;13513;42.700;23.124;2024-02-26T02:34:07;151174.03;;;8.85;100.00
10718;BME280;13513;42.700;23.124;2024-02-26T02:36:35;151189.52;;;8.91;100.00
10718;BME280;13513;42.700;23.124;2024-02-26T02:39:04;151192.09;;;8.92;100.00
10718;BME280;13513;42.700;23.124;2024-02-26T02:41:31;151193.41;;;8.92;100.00
10718;BME280;13513;42.700;23.124;2024-02-26T02:43:59;151214.08;;;9.00;100.00
10718;BME280;13513;42.700;23.124;2024-02-26T02:46:26;151229.59;;;9.06;100.00
10718;BME280;13513;42.700;23.124;2024-02-26T02:48:54;151226.98;;;9.05;100.00
10718;BME280;13513;42.700;23.124;2024-02-26T02:51:22;151243.83;;;9.12;100.00
10718;BME280;13513;42.700;23.124;2024-02-26T02:53:49;151228.30;;;9.06;100.00
10718;BME280;13513;42.700;23.124;2024-02-26T02:56:17;151246.41;;;9.13;100.00
10718;BME280;13513;42.700;23.124;2024-02-26T02:58:44;151272.22;;;9.23;100.00
10718;BME280;13513;42.700;23.124;2024-02-26T03:01:13;151289.06;;;9.29;100.00
10718;BME280;13513;42.700;23.124;2024-02-26T03:03:41;151285.19;;;9.28;100.00
10718;BME280;13513;42.700;23.124;2024-02-26T03:06:08;151278.72;;;9.25;100.00
10718;BME280;13513;42.700;23.124;2024-02-26T03:08:36;151278.72;;;9.25;100.00
10718;BME280;13513;42.700;23.124;2024-02-26T03:11:05;151274.84;;;9.24;100.00
10718;BME280;13513;42.700;23.124;2024-02-26T03:13:33;151279.98;;;9.26;100.00
10718;BME280;13513;42.700;23.124;2024-02-26T03:16:05;151283.88;;;9.27;100.00
10718;BME280;13513;42.700;23.124;2024-02-26T03:18:32;151290.33;;;9.30;100.00
10718;BME280;13513;42.700;23.124;2024-02-26T03:21:00;151276.09;;;9.24;100.00
10718;BME280;13513;42.700;23.124;2024-02-26T03:23:28;151285.19;;;9.28;100.00
10718;BME280;13513;42.700;23.124;2024-02-26T03:25:58;151287.75;;;9.29;100.00
10718;BME280;13513;42.700;23.124;2024-02-26T03:28:26;151282.56;;;9.27;100.00
10718;BME280;13513;42.700;23.124;2024-02-26T03:30:53;151294.22;;;9.31;100.00
10718;BME280;13513;42.700;23.124;2024-02-26T03:33:21;151303.23;;;9.35;100.00
10718;BME280;13513;42.700;23.124;2024-02-26T03:35:48;151312.31;;;9.38;100.00
10718;BME280;13513;42.700;23.124;2024-02-26T03:38:15;151321.34;;;9.42;100.00
10718;BME280;13513;42.700;23.124;2024-02-26T03:40:43;151330.42;;;9.45;100.00
10718;BME280;13513;42.700;23.124;2024-02-26T03:43:10;151339.45;;;9.49;100.00
10718;BME280;13513;42.700;23.124;2024-02-26T03:45:39;151349.80;;;9.53;100.00
10718;BME280;13513;42.700;23.124;2024-02-26T03:48:06;151347.22;;;9.52;100.00
10718;BME280;13513;42.700;23.124;2024-02-26T03:50:34;151347.22;;;9.52;100.00
10718;BME280;13513;42.700;23.124;2024-02-26T03:53:02;151342.03;;;9.50;100.00
10718;BME280;13513;42.700;23.124;2024-02-26T03:55:29;151323.97;;;9.43;100.00
10718;BME280;13513;42.700;23.124;2024-02-26T03:57:57;151327.81;;;9.44;100.00
10718;BME280;13513;42.700;23.124;2024-02-26T04:00:25;151327.81;;;9.44;100.00
10718;BME280;13513;42.700;23.124;2024-02-26T04:02:52;151327.81;;;9.44;100.00
10718;BME280;13513;42.700;23.124;2024-02-26T04:05:20;151330.42;;;9.45;100.00
10718;BME280;13513;42.700;23.124;2024-02-26T04:07:47;151338.14;;;9.48;100.00
10718;BME280;13513;42.700;23.124;2024-02-26T04:10:15;151339.45;;;9.49;100.00
10718;BME280;13513;42.700;23.124;2024-02-26T04:12:43;151317.47;;;9.40;100.00
10718;BME280;13513;42.700;23.124;2024-02-26T04:15:10;151298.09;;;9.33;100.00
10718;BME280;13513;42.700;23.124;2024-02-26T04:17:38;151309.75;;;9.37;100.00
10718;BME280;13513;42.700;23.124;2024-02-26T04:20:07;151308.44;;;9.37;100.00
10718;BME280;13513;42.700;23.124;2024-02-26T04:22:34;151296.78;;;9.32;100.00
10718;BME280;13513;42.700;23.124;2024-02-26T04:25:02;151305.86;;;9.36;100.00
10718;BME280;13513;42.700;23.124;2024-02-26T04:27:29;151318.78;;;9.41;100.00
10718;BME280;13513;42.700;23.124;2024-02-26T04:29:57;151316.20;;;9.40;100.00
10718;BME280;13513;42.700;23.124;2024-02-26T04:32:24;151298.09;;;9.33;100.00
10718;BME280;13513;42.700;23.124;2024-02-26T04:34:51;151278.72;;;9.25;100.00
10718;BME280;13513;42.700;23.124;2024-02-26T04:37:19;151264.50;;;9.20;100.00
10718;BME280;13513;42.700;23.124;2024-02-26T04:39:47;151263.19;;;9.19;100.00
10718;BME280;13513;42.700;23.124;2024-02-26T04:42:14;151264.50;;;9.20;100.00
10718;BME280;13513;42.700;23.124;2024-02-26T04:44:42;151256.73;;;9.17;100.00
10718;BME280;13513;42.700;23.124;2024-02-26T04:47:09;151265.77;;;9.20;100.00
10718;BME280;13513;42.700;23.124;2024-02-26T04:49:37;151283.88;;;9.27;100.00
10718;BME280;13513;42.700;23.124;2024-02-26T04:52:05;151272.22;;;9.23;100.00
10718;BME280;13513;42.700;23.124;2024-02-26T04:54:32;151267.08;;;9.21;100.00
10718;BME280;13513;42.700;23.124;2024-02-26T04:57:00;151259.31;;;9.18;100.00
10718;BME280;13513;42.700;23.124;2024-02-26T04:59:27;151274.84;;;9.24;100.00
10718;BME280;13513;42.700;23.124;2024-02-26T05:01:54;151228.30;;;9.06;100.00
10718;BME280;13513;42.700;23.124;2024-02-26T05:04:22;151241.20;;;9.11;100.00
10718;BME280;13513;42.700;23.124;2024-02-26T05:06:49;151230.86;;;9.07;100.00
10718;BME280;13513;42.700;23.124;2024-02-26T05:09:17;151243.83;;;9.12;100.00
10718;BME280;13513;42.700;23.124;2024-02-26T05:11:44;151246.41;;;9.13;100.00
10718;BME280;13513;42.700;23.124;2024-02-26T05:14:12;151259.31;;;9.18;100.00
10718;BME280;13513;42.700;23.124;2024-02-26T05:16:39;151215.38;;;9.01;100.00
10718;BME280;13513;42.700;23.124;2024-02-26T05:19:07;151185.64;;;8.89;100.00
10718;BME280;13513;42.700;23.124;2024-02-26T05:21:34;151180.50;;;8.87;100.00
10718;BME280;13513;42.700;23.124;2024-02-26T05:24:02;151149.48;;;8.75;100.00
10718;BME280;13513;42.700;23.124;2024-02-26T05:26:29;151183.06;;;8.88;100.00
10718;BME280;13513;42.700;23.124;2024-02-26T05:28:57;151150.75;;;8.76;100.00
10718;BME280;13513;42.700;23.124;2024-02-26T05:31:26;151074.53;;;8.46;100.00
10718;BME280;13513;42.700;23.124;2024-02-26T05:33:55;151030.63;;;8.29;100.00
10718;BME280;13513;42.700;23.124;2024-02-26T05:36:22;151046.11;;;8.35;100.00
10718;BME280;13513;42.700;23.124;2024-02-26T05:38:51;151030.63;;;8.29;100.00
10718;BME280;13513;42.700;23.124;2024-02-26T05:41:19;151044.84;;;8.35;100.00
10718;BME280;13513;42.700;23.124;2024-02-26T05:43:51;151061.63;;;8.41;100.00
10718;BME280;13513;42.700;23.124;2024-02-26T05:46:19;151055.19;;;8.39;100.00
10718;BME280;13513;42.700;23.124;2024-02-26T05:48:51;151049.98;;;8.37;100.00
10718;BME280;13513;42.700;23.124;2024-02-26T05:51:16;151048.69;;;8.36;100.00
10718;BME280;13513;42.700;23.124;2024-02-26T05:53:44;151099.08;;;8.56;100.00
10718;BME280;13513;42.700;23.124;2024-02-26T05:56:13;151118.44;;;8.63;100.00
10718;BME280;13513;42.700;23.124;2024-02-26T05:58:40;151167.53;;;8.82;100.00
10718;BME280;13513;42.700;23.124;2024-02-26T06:01:09;151203.73;;;8.96;100.00
10718;BME280;13513;42.700;23.124;2024-02-26T06:03:37;151223.09;;;9.04;100.00
10718;BME280;13513;42.700;23.124;2024-02-26T06:06:04;151216.64;;;9.01;100.00
10718;BME280;13513;42.700;23.124;2024-02-26T06:08:32;151234.75;;;9.08;100.00
10718;BME280;13513;42.700;23.124;2024-02-26T06:10:59;151250.28;;;9.14;100.00
10718;BME280;13513;42.700;23.124;2024-02-26T06:13:26;151278.72;;;9.25;100.00
10718;BME280;13513;42.700;23.124;2024-02-26T06:15:54;151298.09;;;9.33;100.00
10718;BME280;13513;42.700;23.124;2024-02-26T06:18:21;151312.31;;;9.38;100.00
10718;BME280;13513;42.700;23.124;2024-02-26T06:20:49;151330.42;;;9.45;100.00
10718;BME280;13513;42.700;23.124;2024-02-26T06:23:16;151343.34;;;9.50;100.00
10718;BME280;13513;42.700;23.124;2024-02-26T06:25:44;151356.25;;;9.55;100.00
10718;BME280;13513;42.700;23.124;2024-02-26T06:28:13;151371.80;;;9.61;100.00
10718;BME280;13513;42.700;23.124;2024-02-26T06:30:40;151388.59;;;9.68;100.00
10718;BME280;13513;42.700;23.124;2024-02-26T06:33:08;151400.25;;;9.72;100.00
10718;BME280;13513;42.700;23.124;2024-02-26T06:35:35;151413.17;;;9.77;100.00
10718;BME280;13513;42.700;23.124;2024-02-26T06:38:02;151431.28;;;9.84;100.00
10718;BME280;13513;42.700;23.124;2024-02-26T06:40:30;151448.09;;;9.91;100.00
10718;BME280;13513;42.700;23.124;2024-02-26T06:42:58;151458.44;;;9.95;100.00
10718;BME280;13513;42.700;23.124;2024-02-26T06:45:25;151470.09;;;9.99;100.00
10718;BME280;13513;42.700;23.124;2024-02-26T06:47:52;151483.02;;;10.04;100.00
10718;BME280;13513;42.700;23.124;2024-02-26T06:50:22;151503.75;;;10.12;100.00
10718;BME280;13513;42.700;23.124;2024-02-26T06:52:49;151510.22;;;10.15;100.00
10718;BME280;13513;42.700;23.124;2024-02-26T06:55:17;151546.45;;;10.29;100.00
10718;BME280;13513;42.700;23.124;2024-02-26T06:57:44;151582.70;;;10.43;100.00
10718;BME280;13513;42.700;23.124;2024-02-26T07:00:12;151613.75;;;10.55;100.00
10718;BME280;13513;42.700;23.124;2024-02-26T07:02:42;151625.38;;;10.59;100.00
10718;BME280;13513;42.700;23.124;2024-02-26T07:05:10;151617.66;;;10.56;100.00
10718;BME280;13513;42.700;23.124;2024-02-26T07:07:38;151580.09;;;10.42;100.00
10718;BME280;13513;42.700;23.124;2024-02-26T07:10:07;151560.69;;;10.34;100.00
10718;BME280;13513;42.700;23.124;2024-02-26T07:12:34;151532.22;;;10.23;100.00
10718;BME280;13513;42.700;23.124;2024-02-26T07:15:02;151506.33;;;10.13;100.00
10718;BME280;13513;42.700;23.124;2024-02-26T07:17:29;151466.20;;;9.98;100.00
10718;BME280;13513;42.700;23.124;2024-02-26T07:19:57;151435.17;;;9.86;100.00
10718;BME280;13513;42.700;23.124;2024-02-26T07:22:24;151417.05;;;9.79;100.00
10718;BME280;13513;42.700;23.124;2024-02-26T07:24:52;151408.02;;;9.75;100.00
10718;BME280;13513;42.700;23.124;2024-02-26T07:27:19;151404.13;;;9.74;100.00
10718;BME280;13513;42.700;23.124;2024-02-26T07:29:48;151414.47;;;9.78;100.00
10718;BME280;13513;42.700;23.124;2024-02-26T07:32:15;151414.47;;;9.78;100.00
10718;BME280;13513;42.700;23.124;2024-02-26T07:34:43;151402.83;;;9.73;100.00
10718;BME280;13513;42.700;23.124;2024-02-26T07:37:11;151451.97;;;9.92;100.00
10718;BME280;13513;42.700;23.124;2024-02-26T07:39:39;151433.86;;;9.85;100.00
10718;BME280;13513;42.700;23.124;2024-02-26T07:42:06;151457.13;;;9.94;100.00
10718;BME280;13513;42.700;23.124;2024-02-26T07:44:34;151486.95;;;10.06;100.00
10718;BME280;13513;42.700;23.124;2024-02-26T07:47:01;151492.09;;;10.08;100.00
10718;BME280;13513;42.700;23.124;2024-02-26T07:49:29;151483.02;;;10.04;100.00
10718;BME280;13513;42.700;23.124;2024-02-26T07:51:56;151508.95;;;10.14;100.00
10718;BME280;13513;42.700;23.124;2024-02-26T07:54:24;151502.44;;;10.12;100.00
10718;BME280;13513;42.700;23.124;2024-02-26T07:56:52;151540.00;;;10.26;100.00
10718;BME280;13513;42.700;23.124;2024-02-26T07:59:19;151593.06;;;10.47;100.00
10718;BME280;13513;42.700;23.124;2024-02-26T08:01:51;151598.22;;;10.49;100.00
10718;BME280;13513;42.700;23.124;2024-02-26T08:04:19;151591.75;;;10.46;100.00
10718;BME280;13513;42.700;23.124;2024-02-26T08:06:46;151604.67;;;10.51;100.00
10718;BME280;13513;42.700;23.124;2024-02-26T08:09:14;151624.11;;;10.59;100.00
10718;BME280;13513;42.700;23.124;2024-02-26T08:11:41;151655.17;;;10.71;100.00
10718;BME280;13513;42.700;23.124;2024-02-26T08:14:08;151651.28;;;10.69;100.00
10718;BME280;13513;42.700;23.124;2024-02-26T08:16:36;151695.27;;;10.86;100.00
10718;BME280;13513;42.700;23.124;2024-02-26T08:19:04;151719.88;;;10.96;100.00
10718;BME280;13513;42.700;23.124;2024-02-26T08:21:31;151765.19;;;11.13;100.00
10718;BME280;13513;42.700;23.124;2024-02-26T08:23:59;151819.59;;;11.34;100.00
10718;BME280;13513;42.700;23.124;2024-02-26T08:26:26;151853.25;;;11.47;100.00
10718;BME280;13513;42.700;23.124;2024-02-26T08:28:54;151829.95;;;11.38;100.00
10718;BME280;13513;42.700;23.124;2024-02-26T08:31:22;151809.23;;;11.30;100.00
10718;BME280;13513;42.700;23.124;2024-02-26T08:33:50;151770.38;;;11.15;100.00
10718;BME280;13513;42.700;23.124;2024-02-26T08:36:17;151736.73;;;11.02;100.00
10718;BME280;13513;42.700;23.124;2024-02-26T08:38:45;151740.58;;;11.04;100.00
10718;BME280;13513;42.700;23.124;2024-02-26T08:41:12;151763.91;;;11.13;100.00
10718;BME280;13513;42.700;23.124;2024-02-26T08:43:39;151787.20;;;11.22;100.00
10718;BME280;13513;42.700;23.124;2024-02-26T08:46:10;151697.89;;;10.87;100.00
10718;BME280;13513;42.700;23.124;2024-02-26T08:48:42;151767.80;;;11.14;100.00
10718;BME280;13513;42.700;23.124;2024-02-26T08:51:10;151772.95;;;11.16;100.00
10718;BME280;13513;42.700;23.124;2024-02-26T08:53:37;151800.14;;;11.27;100.00
10718;BME280;13513;42.700;23.124;2024-02-26T08:56:05;151801.45;;;11.27;100.00
10718;BME280;13513;42.700;23.124;2024-02-26T08:58:33;151811.81;;;11.31;100.00
10718;BME280;13513;42.700;23.124;2024-02-26T09:01:00;151754.83;;;11.09;100.00
10718;BME280;13513;42.700;23.124;2024-02-26T09:03:28;151763.91;;;11.13;100.00
10718;BME280;13513;42.700;23.124;2024-02-26T09:05:55;151811.81;;;11.31;100.00
10718;BME280;13513;42.700;23.124;2024-02-26T09:08:23;151802.77;;;11.28;100.00
10718;BME280;13513;42.700;23.124;2024-02-26T09:10:51;151850.67;;;11.46;100.00
10718;BME280;13513;42.700;23.124;2024-02-26T09:13:18;151885.64;;;11.60;100.00
10718;BME280;13513;42.700;23.124;2024-02-26T09:15:46;151827.38;;;11.37;100.00
10718;BME280;13513;42.700;23.124;2024-02-26T09:18:13;151813.13;;;11.32;100.00
10718;BME280;13513;42.700;23.124;2024-02-26T09:20:42;151889.58;;;11.61;100.00
10718;BME280;13513;42.700;23.124;2024-02-26T09:23:09;151977.69;;;11.95;100.00
10718;BME280;13513;42.700;23.124;2024-02-26T09:25:37;152030.78;;;12.16;100.00
10718;BME280;13513;42.700;23.124;2024-02-26T09:28:05;152060.61;;;12.28;100.00
10718;BME280;13513;42.700;23.124;2024-02-26T09:30:32;152165.61;;;12.68;100.00
10718;BME280;13513;42.700;23.124;2024-02-26T09:32:59;152168.19;;;12.69;100.00
10718;BME280;13513;42.700;23.124;2024-02-26T09:35:27;152196.72;;;12.80;100.00
10718;BME280;13513;42.700;23.124;2024-02-26T09:37:55;152223.94;;;12.91;99.95
10718;BME280;13513;42.700;23.124;2024-02-26T09:40:23;152209.67;;;12.85;97.48
10718;BME280;13513;42.700;23.124;2024-02-26T09:42:53;152233.05;;;12.94;96.70
10718;BME280;13513;42.700;23.124;2024-02-26T09:45:23;152264.22;;;13.06;98.18
10718;BME280;13513;42.700;23.124;2024-02-26T09:47:51;152236.94;;;12.96;97.37
10718;BME280;13513;42.700;23.124;2024-02-26T09:50:19;152100.77;;;12.43;98.27
10718;BME280;13513;42.700;23.124;2024-02-26T09:52:51;152160.39;;;12.66;100.00
10718;BME280;13513;42.700;23.124;2024-02-26T09:55:23;152212.31;;;12.86;97.42
10718;BME280;13513;42.700;23.124;2024-02-26T09:57:52;152199.30;;;12.81;99.28
10718;BME280;13513;42.700;23.124;2024-02-26T10:00:21;152156.55;;;12.65;98.33
10718;BME280;13513;42.700;23.124;2024-02-26T10:02:49;152144.86;;;12.60;98.65
10718;BME280;13513;42.700;23.124;2024-02-26T10:05:18;152161.72;;;12.67;97.99
10718;BME280;13513;42.700;23.124;2024-02-26T10:07:46;152143.55;;;12.60;98.03
10718;BME280;13513;42.700;23.124;2024-02-26T10:10:14;152169.50;;;12.70;99.38
10718;BME280;13513;42.700;23.124;2024-02-26T10:12:42;152179.88;;;12.74;98.42
10718;BME280;13513;42.700;23.124;2024-02-26T10:15:10;152172.08;;;12.71;97.76
10718;BME280;13513;42.700;23.124;2024-02-26T10:17:38;152061.92;;;12.28;98.26
10718;BME280;13513;42.700;23.124;2024-02-26T10:20:13;152041.19;;;12.20;99.48
10718;BME280;13513;42.700;23.124;2024-02-26T10:22:42;152107.28;;;12.46;99.64
10718;BME280;13513;42.700;23.124;2024-02-26T10:25:10;152124.12;;;12.52;97.72
10718;BME280;13513;42.700;23.124;2024-02-26T10:27:37;152139.66;;;12.58;98.23
10718;BME280;13513;42.700;23.124;2024-02-26T10:30:16;152150.03;;;12.62;99.63
10718;BME280;13513;42.700;23.124;2024-02-26T10:32:48;152191.56;;;12.78;97.67
10718;BME280;13513;42.700;23.124;2024-02-26T10:35:16;152229.16;;;12.93;97.01
10718;BME280;13513;42.700;23.124;2024-02-26T10:37:46;152196.72;;;12.80;96.72
10718;BME280;13513;42.700;23.124;2024-02-26T10:40:14;152243.47;;;12.98;95.28
10718;BME280;13513;42.700;23.124;2024-02-26T10:42:43;152240.84;;;12.97;95.20
10718;BME280;13513;42.700;23.124;2024-02-26T10:45:13;152283.66;;;13.14;93.94
10718;BME280;13513;42.700;23.124;2024-02-26T10:47:41;152300.55;;;13.20;91.91
10718;BME280;13513;42.700;23.124;2024-02-26T10:50:09;152291.44;;;13.17;93.02
10718;BME280;13513;42.700;23.124;2024-02-26T10:52:37;152303.12;;;13.21;90.73
10718;BME280;13513;42.700;23.124;2024-02-26T10:55:06;152312.19;;;13.25;91.03
10718;BME280;13513;42.700;23.124;2024-02-26T10:57:36;152348.53;;;13.39;91.79
10718;BME280;13513;42.700;23.124;2024-02-26T11:00:06;152396.52;;;13.57;90.79
10718;BME280;13513;42.700;23.124;2024-02-26T11:02:36;152462.69;;;13.83;88.22
10718;BME280;13513;42.700;23.124;2024-02-26T11:05:04;152500.38;;;13.97;86.98
10718;BME280;13513;42.700;23.124;2024-02-26T11:07:36;152563.97;;;14.22;85.54
10718;BME280;13513;42.700;23.124;2024-02-26T11:10:05;152612.06;;;14.40;82.51
10718;BME280;13513;42.700;23.124;2024-02-26T11:12:34;152515.91;;;14.03;82.53
10718;BME280;13513;42.700;23.124;2024-02-26T11:15:06;152673.06;;;14.64;82.46
10718;BME280;13513;42.700;23.124;2024-02-26T11:17:34;152723.73;;;14.83;79.22
10718;BME280;13513;42.700;23.124;2024-02-26T11:20:03;152784.75;;;15.07;74.06
10718;BME280;13513;42.700;23.124;2024-02-26T11:22:32;152827.64;;;15.23;75.62
10718;BME280;13513;42.700;23.124;2024-02-26T11:24:59;152886.19;;;15.46;70.81
10718;BME280;13513;42.700;23.124;2024-02-26T11:27:33;152871.89;;;15.40;68.37
10718;BME280;13513;42.700;23.124;2024-02-26T11:30:02;152851.06;;;15.32;70.27
10718;BME280;13513;42.700;23.124;2024-02-26T11:32:32;152805.59;;;15.15;67.91
10718;BME280;13513;42.700;23.124;2024-02-26T11:35:01;152856.23;;;15.34;71.35
10718;BME280;13513;42.700;23.124;2024-02-26T11:37:30;152910.89;;;15.55;67.42
10718;BME280;13513;42.700;23.124;2024-02-26T11:40:02;152765.28;;;14.99;64.57
10718;BME280;13513;42.700;23.124;2024-02-26T11:42:30;152774.36;;;15.03;62.27
10718;BME280;13513;42.700;23.124;2024-02-26T11:44:57;152726.31;;;14.84;62.54
10718;BME280;13513;42.700;23.124;2024-02-26T11:47:27;152692.56;;;14.71;61.66
10718;BME280;13513;42.700;23.124;2024-02-26T11:49:55;152662.66;;;14.60;64.36
10718;BME280;13513;42.700;23.124;2024-02-26T11:52:22;152641.89;;;14.52;66.38
10718;BME280;13513;42.700;23.124;2024-02-26T11:54:54;152613.31;;;14.41;66.63
10718;BME280;13513;42.700;23.124;2024-02-26T11:57:28;152696.47;;;14.73;64.29
10718;BME280;13513;42.700;23.124;2024-02-26T12:05:22;152699.05;;;14.74;61.49
10718;BME280;13513;42.700;23.124;2024-02-26T12:07:59;152678.28;;;14.66;63.08
10718;BME280;13513;42.700;23.124;2024-02-26T12:10:32;152741.92;;;14.90;62.01
10718;BME280;13513;42.700;23.124;2024-02-26T12:13:16;152713.34;;;14.79;63.16
10718;BME280;13513;42.700;23.124;2024-02-26T12:18:23;152740.61;;;14.90;60.55
10718;BME280;13513;42.700;23.124;2024-02-26T12:21:00;152640.63;;;14.51;63.60
10718;BME280;13513;42.700;23.124;2024-02-26T12:23:28;152721.14;;;14.82;62.65
10718;BME280;13513;42.700;23.124;2024-02-26T12:26:00;152745.83;;;14.92;61.88
10718;BME280;13513;42.700;23.124;2024-02-26T12:28:31;152760.06;;;14.97;62.25
10718;BME280;13513;42.700;23.124;2024-02-26T12:30:59;152728.89;;;14.85;62.78
10718;BME280;13513;42.700;23.124;2024-02-26T12:33:28;152851.06;;;15.32;59.66
10718;BME280;13513;42.700;23.124;2024-02-26T12:35:56;152891.37;;;15.48;57.83
10718;BME280;13513;42.700;23.124;2024-02-26T12:38:24;152891.37;;;15.48;57.39
10718;BME280;13513;42.700;23.124;2024-02-26T12:40:52;152935.58;;;15.65;56.32
10718;BME280;13513;42.700;23.124;2024-02-26T12:43:20;152978.44;;;15.81;54.62
10718;BME280;13513;42.700;23.124;2024-02-26T12:45:47;153042.16;;;16.06;54.73
10718;BME280;13513;42.700;23.124;2024-02-26T12:48:15;153070.77;;;16.17;54.36
10718;BME280;13513;42.700;23.124;2024-02-26T12:50:46;152994.06;;;15.87;54.02